Time;durP1;ratioP1;P1;durP2;ratioP2;P2;SDS_P1;SDS_P2;PMS_P1;PMS_P2;Temp;Humidity;BMP_temperature;BMP_pressure;BME280_temperature;BME280_humidity;BME280_pressure;Samples;Min_cycle;Max_cycle;Signal;HPM_P1;HPM_P2
2022/07/13 00:02:09;;;;;;;4.28;3.80;;;20.00;99.90;;;;;;5024257;28;20094;-66
2022/07/13 00:04:35;;;;;;;5.38;3.90;;;20.00;99.90;;;;;;4996019;28;20049;-67
2022/07/13 00:07:01;;;;;;;4.97;4.35;;;20.00;99.90;;;;;;4995962;28;20096;-67
2022/07/13 00:09:26;;;;;;;5.35;4.38;;;20.00;99.90;;;;;;4996294;28;20073;-67
2022/07/13 00:11:52;;;;;;;4.65;4.25;;;20.00;99.90;;;;;;4964394;28;20368;-66
2022/07/13 00:14:18;;;;;;;5.03;4.53;;;20.00;99.90;;;;;;4984057;28;20064;-66
2022/07/13 00:16:43;;;;;;;5.82;4.20;;;19.90;99.90;;;;;;4979417;28;20053;-66
2022/07/13 00:19:09;;;;;;;5.10;4.05;;;19.90;99.90;;;;;;5004803;28;20502;-67
2022/07/13 00:21:35;;;;;;;4.88;4.28;;;19.90;99.90;;;;;;4998563;28;20057;-66
2022/07/13 00:24:00;;;;;;;4.70;4.30;;;19.90;99.90;;;;;;4985770;28;20133;-66
2022/07/13 00:26:26;;;;;;;4.72;4.10;;;19.90;99.90;;;;;;4980972;28;20483;-66
2022/07/13 00:28:52;;;;;;;4.60;3.92;;;19.80;99.90;;;;;;4995768;28;20097;-67
2022/07/13 00:31:18;;;;;;;7.68;4.60;;;19.80;99.90;;;;;;4996290;28;20104;-67
2022/07/13 00:33:43;;;;;;;4.35;3.95;;;19.80;99.90;;;;;;4996480;28;20491;-66
2022/07/13 00:36:09;;;;;;;5.07;4.50;;;19.70;99.90;;;;;;4998744;28;20478;-66
2022/07/13 00:38:35;;;;;;;7.40;4.40;;;19.80;99.90;;;;;;5012081;28;20049;-67
2022/07/13 00:41:04;;;;;;;7.45;3.70;;;19.80;99.90;;;;;;5008987;28;20045;-66
2022/07/13 00:43:29;;;;;;;4.20;3.78;;;19.60;99.90;;;;;;4988412;28;20533;-66
2022/07/13 00:45:55;;;;;;;4.20;3.80;;;19.50;99.90;;;;;;4963721;28;20046;-66
2022/07/13 00:48:22;;;;;;;5.32;3.95;;;19.40;99.90;;;;;;4966945;28;20151;-69
2022/07/13 00:50:48;;;;;;;5.38;3.78;;;19.40;99.90;;;;;;4990880;28;20612;-68
2022/07/13 00:53:14;;;;;;;4.95;4.32;;;19.30;99.90;;;;;;4972666;28;20411;-69
2022/07/13 00:55:39;;;;;;;5.40;4.47;;;19.40;99.90;;;;;;4971715;28;20081;-66
2022/07/13 00:58:08;;;;;;;4.72;4.32;;;19.40;99.90;;;;;;4971463;28;20706;-67
2022/07/13 01:00:36;;;;;;;4.50;4.10;;;19.40;99.90;;;;;;4986918;28;20195;-67
2022/07/13 01:03:02;;;;;;;5.35;4.85;;;19.40;99.90;;;;;;5005176;28;20049;-66
2022/07/13 01:05:28;;;;;;;5.50;5.00;;;19.40;99.90;;;;;;4987927;28;20165;-67
2022/07/13 01:07:54;;;;;;;6.10;5.50;;;19.40;99.90;;;;;;4972900;28;20128;-68
2022/07/13 01:10:21;;;;;;;5.85;5.28;;;19.50;99.90;;;;;;5011277;28;20079;-67
2022/07/13 01:12:46;;;;;;;6.30;5.70;;;19.50;99.90;;;;;;4972414;28;20049;-68
2022/07/13 01:15:12;;;;;;;5.70;5.20;;;19.50;99.90;;;;;;5006193;28;20053;-67
2022/07/13 01:17:38;;;;;;;6.25;5.60;;;19.50;99.90;;;;;;4972131;28;20081;-67
2022/07/13 01:20:07;;;;;;;7.05;5.90;;;19.60;99.90;;;;;;4987482;28;20070;-69
2022/07/13 01:22:38;;;;;;;6.10;5.13;;;19.60;99.90;;;;;;4986849;28;20180;-66
2022/07/13 01:25:04;;;;;;;6.03;4.95;;;19.60;99.90;;;;;;4999223;28;20386;-66
2022/07/13 01:27:33;;;;;;;6.85;5.18;;;19.60;99.90;;;;;;4958339;28;20049;-67
2022/07/13 01:29:59;;;;;;;5.75;5.15;;;19.60;99.90;;;;;;4987264;28;20077;-67
2022/07/13 01:32:25;;;;;;;6.60;5.90;;;19.60;99.90;;;;;;4954425;28;20054;-68
2022/07/13 01:34:51;;;;;;;6.78;5.93;;;19.60;99.90;;;;;;4988136;28;20050;-68
2022/07/13 01:37:18;;;;;;;6.90;5.80;;;19.70;99.90;;;;;;5002815;28;20479;-72
2022/07/13 01:39:44;;;;;;;8.60;5.50;;;19.60;99.90;;;;;;4983476;28;20054;-67
2022/07/13 01:42:10;;;;;;;5.88;5.38;;;19.70;99.90;;;;;;4987547;28;20038;-66
2022/07/13 01:44:36;;;;;;;6.93;6.20;;;19.70;99.90;;;;;;5001708;28;20545;-66
2022/07/13 01:47:10;;;;;;;6.70;6.10;;;19.70;99.90;;;;;;4987121;28;20054;-67
2022/07/13 01:49:36;;;;;;;6.30;5.35;;;19.70;99.90;;;;;;4966099;28;20605;-70
2022/07/13 01:52:02;;;;;;;8.88;6.28;;;19.70;99.90;;;;;;5004067;28;20046;-66
2022/07/13 01:54:28;;;;;;;8.43;6.10;;;19.70;99.90;;;;;;4987875;28;20049;-67
2022/07/13 01:56:53;;;;;;;7.25;6.38;;;19.80;99.90;;;;;;4970056;28;20045;-67
2022/07/13 01:59:19;;;;;;;8.13;6.93;;;19.70;99.90;;;;;;4973719;28;20057;-67
2022/07/13 02:01:45;;;;;;;7.63;6.88;;;19.80;99.90;;;;;;5020448;28;20478;-67
2022/07/13 02:04:11;;;;;;;7.35;6.63;;;19.80;99.90;;;;;;5006022;28;20049;-66
2022/07/13 02:06:37;;;;;;;7.10;6.50;;;19.70;99.90;;;;;;5010557;28;20135;-66
2022/07/13 02:09:03;;;;;;;6.90;6.20;;;19.80;99.90;;;;;;4985285;28;20497;-66
2022/07/13 02:11:29;;;;;;;8.98;6.88;;;19.70;99.90;;;;;;5014030;28;20129;-69
2022/07/13 02:13:55;;;;;;;8.95;6.53;;;19.70;99.90;;;;;;4995584;28;20125;-67
2022/07/13 02:16:21;;;;;;;9.13;7.38;;;19.80;99.90;;;;;;4981857;28;20100;-68
2022/07/13 02:18:47;;;;;;;7.13;6.43;;;19.80;99.90;;;;;;4997359;28;20046;-72
2022/07/13 02:21:13;;;;;;;9.93;7.18;;;19.70;99.90;;;;;;4992893;28;20053;-66
2022/07/13 02:23:39;;;;;;;12.32;7.57;;;19.70;99.90;;;;;;5000029;28;20052;-66
2022/07/13 02:26:05;;;;;;;10.50;7.70;;;19.70;99.90;;;;;;4996344;28;20049;-66
2022/07/13 02:28:30;;;;;;;9.48;7.03;;;19.70;99.90;;;;;;4975625;28;20398;-67
2022/07/13 02:30:56;;;;;;;8.13;7.00;;;19.70;99.90;;;;;;4977479;28;20045;-66
2022/07/13 02:33:22;;;;;;;10.00;7.18;;;19.70;99.90;;;;;;4987793;28;20380;-67
2022/07/13 02:35:47;;;;;;;9.30;7.43;;;19.70;99.90;;;;;;4971662;28;20045;-67
2022/07/13 02:38:13;;;;;;;10.93;8.18;;;19.70;99.90;;;;;;4972174;28;20073;-67
2022/07/13 02:40:39;;;;;;;9.18;7.57;;;19.70;99.90;;;;;;5006061;28;20352;-69
2022/07/13 02:43:04;;;;;;;11.13;8.30;;;19.70;99.90;;;;;;4974515;28;20061;-66
2022/07/13 02:45:30;;;;;;;9.50;7.88;;;19.70;99.90;;;;;;5003048;28;20418;-67
2022/07/13 02:47:56;;;;;;;9.85;8.48;;;19.60;99.90;;;;;;5003612;28;20079;-68
2022/07/13 02:50:22;;;;;;;11.23;9.45;;;19.60;99.90;;;;;;4988096;28;20054;-69
2022/07/13 02:52:47;;;;;;;13.52;9.80;;;19.60;99.90;;;;;;4988878;28;20042;-67
2022/07/13 02:55:13;;;;;;;14.75;10.57;;;19.60;99.90;;;;;;5003561;28;20050;-68
2022/07/13 02:57:39;;;;;;;13.20;10.82;;;19.60;99.90;;;;;;4987354;28;20470;-68
2022/07/13 03:00:06;;;;;;;12.15;10.95;;;19.60;99.90;;;;;;5003889;28;20046;-69
2022/07/13 03:02:32;;;;;;;14.48;11.20;;;19.60;99.90;;;;;;4968019;28;20105;-67
2022/07/13 03:04:58;;;;;;;14.45;10.80;;;19.60;99.90;;;;;;4971068;28;20434;-67
2022/07/13 03:07:23;;;;;;;15.45;11.05;;;19.60;99.90;;;;;;4985318;28;20038;-67
2022/07/13 03:09:49;;;;;;;13.55;10.90;;;19.60;99.90;;;;;;4972770;28;20053;-69
2022/07/13 03:12:15;;;;;;;14.27;11.43;;;19.60;99.90;;;;;;4957430;28;20049;-67
2022/07/13 03:14:40;;;;;;;14.32;11.60;;;19.60;99.90;;;;;;4989429;28;20058;-67
2022/07/13 03:17:06;;;;;;;13.50;11.02;;;19.60;99.90;;;;;;5003821;28;20111;-68
2022/07/13 03:19:33;;;;;;;12.52;11.13;;;19.50;99.90;;;;;;4997775;28;20057;-69
2022/07/13 03:22:01;;;;;;;12.57;11.25;;;19.50;99.90;;;;;;4986442;28;20058;-66
2022/07/13 03:24:29;;;;;;;15.30;10.85;;;19.50;99.90;;;;;;4974637;28;20052;-66
2022/07/13 03:26:55;;;;;;;14.32;11.82;;;19.50;99.90;;;;;;4972305;28;20368;-70
2022/07/13 03:29:20;;;;;;;13.57;11.38;;;19.50;99.90;;;;;;4987990;28;20430;-66
2022/07/13 03:31:46;;;;;;;13.48;11.50;;;19.40;99.90;;;;;;4974157;28;20519;-67
2022/07/13 03:34:12;;;;;;;12.88;11.02;;;19.50;99.90;;;;;;4990740;28;20060;-66
2022/07/13 03:36:37;;;;;;;13.82;11.70;;;19.50;99.90;;;;;;4983809;28;20141;-67
2022/07/13 03:39:03;;;;;;;15.52;11.40;;;19.40;99.90;;;;;;4957672;28;20052;-69
2022/07/13 03:41:29;;;;;;;12.93;11.52;;;19.40;99.90;;;;;;4990321;28;20104;-68
2022/07/13 03:43:54;;;;;;;12.75;11.35;;;19.40;99.90;;;;;;4990640;28;20463;-68
2022/07/13 03:46:20;;;;;;;12.60;10.52;;;19.40;99.90;;;;;;5000690;28;20041;-66
2022/07/13 03:48:46;;;;;;;12.48;10.57;;;19.40;99.90;;;;;;4988459;28;20119;-67
2022/07/13 03:51:11;;;;;;;14.15;10.82;;;19.40;99.90;;;;;;4999774;28;20049;-66
2022/07/13 03:53:37;;;;;;;13.98;11.40;;;19.40;99.90;;;;;;5016873;28;20136;-67
2022/07/13 03:56:03;;;;;;;13.75;10.40;;;19.40;99.90;;;;;;4986812;28;20057;-66
2022/07/13 03:58:28;;;;;;;12.40;11.10;;;19.40;99.90;;;;;;5003026;28;20050;-66
2022/07/13 04:00:56;;;;;;;13.50;11.02;;;19.40;99.90;;;;;;4992797;28;20053;-66
2022/07/13 04:03:22;;;;;;;13.68;10.50;;;19.50;99.90;;;;;;5000221;28;20056;-66
2022/07/13 04:05:48;;;;;;;16.00;10.88;;;19.40;99.90;;;;;;5010052;28;20042;-66
2022/07/13 04:08:14;;;;;;;14.88;10.73;;;19.50;99.90;;;;;;4996673;28;20052;-66
2022/07/13 04:10:39;;;;;;;13.40;10.80;;;19.40;99.90;;;;;;4980595;28;20367;-66
2022/07/13 04:13:05;;;;;;;11.45;10.25;;;19.40;99.90;;;;;;4976634;28;20049;-66
2022/07/13 04:15:31;;;;;;;13.45;10.70;;;19.40;99.90;;;;;;5010866;28;20042;-66
2022/07/13 04:17:56;;;;;;;13.32;10.70;;;19.50;99.90;;;;;;5001148;28;20085;-67
2022/07/13 04:20:22;;;;;;;12.57;10.52;;;19.50;99.90;;;;;;4991878;28;20498;-68
2022/07/13 04:22:48;;;;;;;13.90;11.23;;;19.50;99.90;;;;;;4981147;28;20042;-66
2022/07/13 04:25:13;;;;;;;13.00;10.95;;;19.50;99.90;;;;;;4996276;28;20046;-66
2022/07/13 04:27:39;;;;;;;12.32;11.02;;;19.50;99.90;;;;;;4989586;28;20042;-66
2022/07/13 04:30:05;;;;;;;12.88;10.57;;;19.50;99.90;;;;;;5002895;28;20058;-66
2022/07/13 04:32:31;;;;;;;12.93;10.63;;;19.50;99.90;;;;;;5005197;28;20566;-66
2022/07/13 04:34:56;;;;;;;12.88;10.98;;;19.50;99.90;;;;;;4979329;28;20181;-66
2022/07/13 04:37:22;;;;;;;13.15;10.93;;;19.50;99.90;;;;;;5012092;28;20042;-66
2022/07/13 04:39:48;;;;;;;13.00;10.95;;;19.50;99.90;;;;;;4996205;28;20096;-66
2022/07/13 04:42:13;;;;;;;15.98;11.57;;;19.50;99.90;;;;;;4996037;28;20365;-66
2022/07/13 04:44:39;;;;;;;11.73;10.02;;;19.50;99.90;;;;;;5007290;28;20261;-66
2022/07/13 04:47:05;;;;;;;13.00;10.25;;;19.60;99.90;;;;;;4961397;28;20046;-66
2022/07/13 04:49:31;;;;;;;13.07;10.60;;;19.60;99.90;;;;;;4977119;28;20515;-67
2022/07/13 04:51:56;;;;;;;14.38;10.55;;;19.60;99.90;;;;;;4979430;28;20045;-66
2022/07/13 04:54:22;;;;;;;12.77;11.38;;;19.60;99.90;;;;;;4995923;28;20394;-66
2022/07/13 04:56:48;;;;;;;13.77;10.88;;;19.60;99.90;;;;;;4995682;28;20042;-69
2022/07/13 04:59:14;;;;;;;12.18;10.82;;;19.70;99.90;;;;;;4971257;28;20045;-66
2022/07/13 05:01:41;;;;;;;12.95;10.50;;;19.70;99.90;;;;;;5011953;28;20049;-66
2022/07/13 05:04:07;;;;;;;13.68;10.05;;;19.80;99.90;;;;;;4985893;28;20053;-66
2022/07/13 05:06:33;;;;;;;13.00;9.68;;;19.80;99.90;;;;;;5003058;28;20055;-66
2022/07/13 05:09:00;;;;;;;13.23;10.05;;;19.80;99.90;;;;;;4991835;28;20399;-67
2022/07/13 05:11:25;;;;;;;15.18;10.20;;;19.90;99.90;;;;;;4998600;28;20136;-66
2022/07/13 05:13:52;;;;;;;13.27;10.20;;;19.90;99.90;;;;;;4995576;28;20132;-69
2022/07/13 05:16:18;;;;;;;12.55;10.13;;;20.00;99.90;;;;;;4978324;28;20100;-67
2022/07/13 05:18:44;;;;;;;13.15;10.10;;;20.00;99.90;;;;;;4983156;28;20058;-67
2022/07/13 05:21:13;;;;;;;13.65;10.18;;;20.00;99.90;;;;;;4979163;28;20467;-66
2022/07/13 05:23:39;;;;;;;11.10;9.32;;;20.10;99.90;;;;;;4963237;28;20082;-67
2022/07/13 05:26:05;;;;;;;12.65;9.40;;;20.20;99.90;;;;;;4984958;28;20090;-68
2022/07/13 05:28:33;;;;;;;11.00;9.27;;;20.20;99.90;;;;;;4975889;28;20050;-67
2022/07/13 05:30:59;;;;;;;12.43;8.95;;;20.30;99.90;;;;;;4975581;28;20447;-66
2022/07/13 05:33:25;;;;;;;13.88;8.80;;;20.30;99.90;;;;;;4964934;28;20053;-66
2022/07/13 05:35:50;;;;;;;8.60;7.75;;;20.40;99.90;;;;;;4963251;28;20046;-67
2022/07/13 05:38:16;;;;;;;11.38;8.27;;;20.40;99.90;;;;;;5011187;28;20123;-66
2022/07/13 05:40:42;;;;;;;9.70;7.80;;;20.50;99.90;;;;;;4979132;28;20108;-66
2022/07/13 05:43:08;;;;;;;8.90;8.00;;;20.50;99.90;;;;;;4978449;28;20537;-66
2022/07/13 05:45:34;;;;;;;10.93;8.25;;;20.50;99.90;;;;;;4994912;28;20557;-68
2022/07/13 05:48:00;;;;;;;9.60;8.20;;;20.60;99.90;;;;;;4980167;28;20042;-66
2022/07/13 05:50:26;;;;;;;10.02;8.57;;;20.60;99.90;;;;;;4974063;28;20046;-72
2022/07/13 05:52:52;;;;;;;13.07;8.93;;;20.60;99.90;;;;;;4994080;28;20533;-66
2022/07/13 05:55:18;;;;;;;10.20;8.38;;;20.60;99.90;;;;;;4961082;28;20046;-69
2022/07/13 05:57:47;;;;;;;10.15;8.80;;;20.60;99.90;;;;;;4980551;28;20133;-66
2022/07/13 06:00:13;;;;;;;10.15;8.90;;;20.60;99.90;;;;;;4994966;28;20050;-67
2022/07/13 06:02:42;;;;;;;11.00;8.50;;;20.60;99.90;;;;;;4965593;28;20081;-66
2022/07/13 06:05:09;;;;;;;9.32;8.27;;;20.60;99.90;;;;;;4956052;28;20047;-66
2022/07/13 06:07:35;;;;;;;9.57;7.85;;;20.70;99.90;;;;;;4982059;28;20122;-67
2022/07/13 06:10:02;;;;;;;10.80;8.32;;;20.70;99.90;;;;;;4994579;28;20050;-66
2022/07/13 06:12:28;;;;;;;10.20;8.15;;;20.70;99.90;;;;;;4994549;28;20534;-66
2022/07/13 06:14:54;;;;;;;9.95;8.30;;;20.70;99.90;;;;;;4975582;28;20125;-66
2022/07/13 06:17:23;;;;;;;9.10;7.78;;;20.80;99.90;;;;;;5002396;28;20490;-67
2022/07/13 06:19:49;;;;;;;9.30;8.32;;;20.80;99.90;;;;;;4992099;28;20402;-68
2022/07/13 06:22:16;;;;;;;11.10;8.98;;;20.90;99.90;;;;;;5013838;28;20045;-66
2022/07/13 06:24:43;;;;;;;9.40;8.40;;;20.90;99.90;;;;;;4982676;28;20049;-66
2022/07/13 06:27:09;;;;;;;8.73;7.82;;;21.00;99.90;;;;;;4973259;28;20060;-66
2022/07/13 06:29:35;;;;;;;11.52;7.53;;;21.00;99.90;;;;;;5007694;28;20046;-66
2022/07/13 06:32:01;;;;;;;9.43;8.25;;;20.90;99.90;;;;;;5014127;28;20046;-66
2022/07/13 06:34:27;;;;;;;10.15;8.60;;;21.00;99.90;;;;;;5023740;28;20100;-66
2022/07/13 06:36:52;;;;;;;9.20;8.30;;;21.10;99.90;;;;;;4997301;28;20418;-69
2022/07/13 06:39:18;;;;;;;10.15;8.30;;;21.10;99.90;;;;;;5014022;28;20056;-66
2022/07/13 06:41:45;;;;;;;9.10;8.20;;;21.20;99.90;;;;;;5001341;28;20522;-66
2022/07/13 06:44:11;;;;;;;10.02;7.97;;;21.20;99.90;;;;;;5011887;28;20042;-67
2022/07/13 06:46:37;;;;;;;11.02;8.05;;;21.40;99.90;;;;;;5001421;28;20085;-73
2022/07/13 06:49:03;;;;;;;10.93;7.68;;;21.40;99.90;;;;;;5025156;28;20045;-72
2022/07/13 06:51:29;;;;;;;9.10;7.88;;;21.50;99.90;;;;;;5013609;28;20049;-68
2022/07/13 06:53:54;;;;;;;9.48;7.70;;;21.50;99.90;;;;;;5011589;28;20133;-70
2022/07/13 06:56:20;;;;;;;10.38;7.88;;;21.60;99.90;;;;;;4985279;28;20068;-66
2022/07/13 06:58:46;;;;;;;9.73;8.23;;;21.70;99.90;;;;;;5007679;28;20057;-67
2022/07/13 07:01:12;;;;;;;9.38;8.10;;;21.80;99.90;;;;;;5001746;28;20045;-67
2022/07/13 07:03:38;;;;;;;10.40;8.15;;;21.90;99.90;;;;;;4977915;28;20046;-67
2022/07/13 07:06:04;;;;;;;9.27;8.32;;;21.90;99.90;;;;;;4981485;28;20050;-68
2022/07/13 07:08:30;;;;;;;10.88;8.15;;;21.90;99.90;;;;;;4996025;28;20395;-68
2022/07/13 07:10:56;;;;;;;9.23;7.88;;;22.10;99.90;;;;;;4987565;28;20045;-67
2022/07/13 07:13:22;;;;;;;12.07;8.02;;;22.30;99.90;;;;;;4981889;28;20042;-67
2022/07/13 07:15:48;;;;;;;9.30;8.27;;;22.40;99.90;;;;;;5017251;28;20046;-67
2022/07/13 07:18:14;;;;;;;11.02;9.07;;;22.50;99.90;;;;;;4998809;28;20062;-67
2022/07/13 07:20:39;;;;;;;11.27;8.80;;;22.60;99.90;;;;;;4996415;28;20049;-67
2022/07/13 07:23:06;;;;;;;12.95;9.05;;;22.60;99.90;;;;;;4989454;28;20073;-70
2022/07/13 07:25:31;;;;;;;11.85;8.73;;;22.80;99.90;;;;;;4975291;28;20056;-67
2022/07/13 07:27:57;;;;;;;15.45;9.52;;;22.90;99.90;;;;;;4981214;28;20057;-67
2022/07/13 07:30:23;;;;;;;13.40;9.50;;;22.80;99.90;;;;;;4975500;28;20475;-68
2022/07/13 07:32:49;;;;;;;11.65;9.02;;;22.90;99.90;;;;;;4946166;28;20148;-68
2022/07/13 07:35:15;;;;;;;11.13;8.65;;;23.10;99.90;;;;;;4976611;28;20045;-67
2022/07/13 07:37:40;;;;;;;11.35;9.23;;;23.30;99.90;;;;;;5026600;28;20466;-68
2022/07/13 07:40:07;;;;;;;12.38;9.20;;;23.30;99.90;;;;;;5002304;28;20049;-70
2022/07/13 07:42:33;;;;;;;13.98;9.13;;;23.10;99.90;;;;;;4992105;28;20057;-67
2022/07/13 07:44:58;;;;;;;12.88;9.30;;;23.10;99.90;;;;;;4987925;28;20042;-68
2022/07/13 07:47:25;;;;;;;11.00;9.40;;;23.20;99.90;;;;;;5013173;28;20049;-68
2022/07/13 07:49:54;;;;;;;13.95;9.82;;;23.40;99.90;;;;;;4976743;28;20073;-67
2022/07/13 07:52:21;;;;;;;14.30;10.02;;;23.60;99.90;;;;;;4990895;28;20394;-66
2022/07/13 07:54:47;;;;;;;13.23;10.18;;;23.80;99.90;;;;;;4977044;28;20088;-69
2022/07/13 07:57:14;;;;;;;13.82;10.80;;;23.70;99.90;;;;;;4998165;28;20073;-66
2022/07/13 07:59:41;;;;;;;11.52;9.77;;;23.80;99.90;;;;;;4979753;28;20037;-67
2022/07/13 08:02:07;;;;;;;15.73;10.43;;;24.00;99.90;;;;;;4985648;28;20046;-66
2022/07/13 08:04:33;;;;;;;14.15;10.10;;;24.10;99.90;;;;;;4995755;28;20501;-67
2022/07/13 08:06:59;;;;;;;16.85;11.15;;;24.20;99.90;;;;;;4985506;28;20062;-68
2022/07/13 08:09:26;;;;;;;14.45;10.02;;;24.20;99.90;;;;;;4995829;28;20046;-67
2022/07/13 08:11:51;;;;;;;12.05;9.88;;;24.30;99.90;;;;;;4997486;28;20061;-67
2022/07/13 08:14:17;;;;;;;12.32;9.40;;;24.60;99.90;;;;;;5007043;28;20038;-70
2022/07/13 08:16:43;;;;;;;12.90;10.27;;;24.70;99.90;;;;;;4995399;28;20050;-69
2022/07/13 08:19:09;;;;;;;13.93;10.57;;;24.70;99.90;;;;;;4974917;28;20499;-66
2022/07/13 08:21:36;;;;;;;12.02;9.43;;;24.70;99.90;;;;;;4987957;28;20491;-66
2022/07/13 08:24:02;;;;;;;11.10;9.77;;;24.80;99.90;;;;;;4990067;28;20104;-70
2022/07/13 08:26:29;;;;;;;15.57;9.75;;;24.70;99.90;;;;;;4976406;28;20041;-67
2022/07/13 08:28:57;;;;;;;13.82;9.82;;;24.90;99.90;;;;;;5012146;28;20133;-69
2022/07/13 08:31:23;;;;;;;12.20;9.07;;;24.80;99.90;;;;;;4996718;28;20398;-69
2022/07/13 08:39:23;;;;;;;11.68;8.85;;;25.40;99.90;;;;;;4989982;28;20560;-69
2022/07/13 08:41:49;;;;;;;12.23;8.60;;;25.60;99.90;;;;;;4989789;28;20042;-70
2022/07/13 08:44:16;;;;;;;12.25;8.90;;;25.60;99.90;;;;;;4975604;28;20057;-71
2022/07/13 08:46:42;;;;;;;11.95;8.77;;;25.70;99.90;;;;;;4982935;28;20682;-69
2022/07/13 08:49:09;;;;;;;12.75;8.30;;;25.70;99.90;;;;;;4991589;28;20050;-70
2022/07/13 08:51:35;;;;;;;14.77;9.73;;;25.80;99.90;;;;;;5001218;28;20041;-71
2022/07/13 08:54:07;;;;;;;15.05;8.25;;;25.80;99.90;;;;;;5008467;28;20498;-71
2022/07/13 08:56:33;;;;;;;11.15;8.02;;;26.00;99.90;;;;;;4990070;28;20120;-71
2022/07/13 08:59:00;;;;;;;12.15;9.00;;;26.10;99.90;;;;;;5007861;28;20196;-73
2022/07/13 09:01:25;;;;;;;13.60;8.55;;;26.10;99.90;;;;;;4981191;28;20052;-71
2022/07/13 09:03:51;;;;;;;11.57;8.77;;;26.10;99.90;;;;;;4977981;28;20038;-72
2022/07/13 09:06:47;;;;;;;8.73;7.82;;;26.20;99.90;;;;;;4981778;28;20769;-73
2022/07/13 09:09:28;;;;;;;13.00;8.20;;;26.30;99.90;;;;;;4973361;28;20089;-71
2022/07/13 09:12:18;;;;;;;9.13;6.55;;;26.40;99.90;;;;;;4989568;28;20045;-71
2022/07/13 09:15:08;;;;;;;13.90;9.45;;;26.60;99.90;;;;;;4990062;28;20037;-71
2022/07/13 09:17:47;;;;;;;10.18;6.38;;;26.60;99.90;;;;;;4994713;28;20499;-71
2022/07/13 09:20:12;;;;;;;7.80;5.40;;;26.70;99.90;;;;;;4995362;28;20494;-71
2022/07/13 09:22:50;;;;;;;5.95;5.05;;;26.90;99.90;;;;;;4995101;28;20097;-70
2022/07/13 09:25:26;;;;;;;8.80;5.35;;;26.90;99.90;;;;;;4974377;28;20050;-70
2022/07/13 09:27:53;;;;;;;9.45;7.00;;;27.00;99.90;;;;;;4975446;28;20895;-71
2022/07/13 09:30:27;;;;;;;6.82;5.85;;;27.00;99.90;;;;;;4978449;28;20077;-72
2022/07/13 09:32:58;;;;;;;7.72;5.30;;;26.90;99.90;;;;;;4989407;28;20124;-72
2022/07/13 09:35:49;;;;;;;7.43;6.38;;;26.90;99.90;;;;;;5003577;28;20054;-70
2022/07/13 09:38:36;;;;;;;8.82;5.72;;;27.00;99.90;;;;;;4997948;28;20046;-70
2022/07/13 09:41:14;;;;;;;7.00;4.65;;;27.20;99.90;;;;;;4973352;28;20057;-71
2022/07/13 09:46:59;;;;;;;7.18;5.18;;;27.40;99.90;;;;;;4992769;28;20054;-71
2022/07/13 09:49:41;;;;;;;7.10;4.53;;;27.60;99.90;;;;;;4998827;28;20455;-71
2022/07/13 09:52:13;;;;;;;4.60;3.90;;;27.70;99.90;;;;;;4983612;28;20610;-73
2022/07/13 09:54:42;;;;;;;7.97;4.95;;;27.70;99.90;;;;;;4972823;28;20057;-71
2022/07/13 09:57:10;;;;;;;7.97;4.80;;;27.80;99.90;;;;;;4998671;28;20068;-72
2022/07/13 09:59:45;;;;;;;9.70;4.45;;;27.60;99.90;;;;;;4974788;28;20053;-71
2022/07/13 10:02:11;;;;;;;3.42;3.13;;;27.70;99.90;;;;;;5003582;28;20049;-71
2022/07/13 10:04:38;;;;;;;4.10;3.47;;;27.90;99.90;;;;;;5005286;28;20085;-70
2022/07/13 10:07:05;;;;;;;6.57;4.30;;;28.20;99.90;;;;;;4972572;28;20050;-70
2022/07/13 10:09:31;;;;;;;4.97;3.63;;;28.00;99.60;;;;;;4966296;28;20195;-70
2022/07/13 10:12:00;;;;;;;4.78;2.80;;;28.10;99.70;;;;;;4987624;28;20499;-70
2022/07/13 10:14:27;;;;;;;4.95;2.92;;;28.30;97.10;;;;;;4990785;28;20490;-70
2022/07/13 10:17:01;;;;;;;4.38;3.08;;;28.40;96.40;;;;;;4991157;28;20119;-70
2022/07/13 10:19:31;;;;;;;3.35;3.05;;;28.40;94.60;;;;;;4992814;28;20053;-70
2022/07/13 10:22:06;;;;;;;4.45;3.00;;;28.50;95.90;;;;;;4974150;28;20057;-69
2022/07/13 10:24:33;;;;;;;4.72;3.22;;;28.50;93.90;;;;;;4995011;28;20053;-70
2022/07/13 10:27:28;;;;;;;3.58;2.70;;;28.60;94.40;;;;;;5003906;28;20057;-69
2022/07/13 10:29:59;;;;;;;3.90;2.53;;;28.60;91.90;;;;;;5011048;28;20086;-71
2022/07/13 10:32:39;;;;;;;4.65;3.20;;;28.40;90.90;;;;;;5006031;28;20128;-71
2022/07/13 10:35:09;;;;;;;2.85;2.60;;;28.40;91.10;;;;;;4992806;28;20045;-72
2022/07/13 10:37:59;;;;;;;3.47;2.67;;;28.40;90.80;;;;;;5006453;28;20120;-70
2022/07/13 10:40:32;;;;;;;5.43;2.92;;;28.50;90.80;;;;;;4992888;28;20458;-70
2022/07/13 10:43:00;;;;;;;4.30;2.42;;;28.70;91.10;;;;;;5002938;28;20085;-71
2022/07/13 10:45:41;;;;;;;3.00;2.70;;;28.80;90.60;;;;;;5016393;28;20049;-70
2022/07/13 10:48:29;;;;;;;3.90;2.85;;;28.80;89.40;;;;;;4995231;28;20051;-70
2022/07/13 10:51:00;;;;;;;5.03;3.30;;;28.60;87.20;;;;;;4998967;28;20046;-70
2022/07/13 10:53:38;;;;;;;5.05;3.08;;;28.60;88.40;;;;;;5007175;28;20494;-71
2022/07/13 10:56:14;;;;;;;4.18;2.70;;;28.60;86.70;;;;;;5012774;28;20054;-70
2022/07/13 10:58:40;;;;;;;3.80;2.70;;;28.70;87.30;;;;;;4998143;28;20132;-69
2022/07/13 11:01:33;;;;;;;5.32;2.92;;;28.70;85.40;;;;;;5004328;28;20124;-70
2022/07/13 11:03:59;;;;;;;4.65;2.53;;;28.90;84.10;;;;;;4980690;28;20049;-70
2022/07/13 11:06:25;;;;;;;3.22;2.20;;;29.20;86.30;;;;;;4996896;28;20049;-70
2022/07/13 11:09:18;;;;;;;2.80;2.40;;;29.30;85.10;;;;;;4990578;28;20050;-70
2022/07/13 11:11:51;;;;;;;2.90;2.70;;;29.20;75.10;;;;;;4987623;28;20061;-70
2022/07/13 11:14:47;;;;;;;2.20;2.00;;;29.20;80.40;;;;;;4990379;28;20059;-73
2022/07/13 11:17:17;;;;;;;3.17;2.30;;;29.30;78.10;;;;;;5003641;28;20120;-71
2022/07/13 11:19:57;;;;;;;3.83;2.22;;;29.30;79.80;;;;;;4989450;28;20052;-70
2022/07/13 11:22:26;;;;;;;3.53;2.50;;;29.30;77.90;;;;;;4987377;28;20078;-69
2022/07/13 11:25:33;;;;;;;2.50;2.20;;;29.30;78.20;;;;;;4987281;28;20124;-71
2022/07/13 11:28:08;;;;;;;5.18;2.53;;;29.40;76.60;;;;;;4984704;28;20422;-69
2022/07/13 11:30:40;;;;;;;2.78;2.20;;;29.30;76.70;;;;;;4996111;28;20487;-70
2022/07/13 11:33:12;;;;;;;2.50;1.92;;;29.30;74.80;;;;;;5001570;28;20487;-69
2022/07/13 11:35:43;;;;;;;3.55;2.17;;;29.50;75.80;;;;;;4998483;28;20042;-69
2022/07/13 11:38:10;;;;;;;2.75;2.30;;;29.60;75.90;;;;;;4990283;28;20636;-69
2022/07/13 11:40:36;;;;;;;3.92;2.35;;;29.60;75.00;;;;;;4964264;28;20046;-70
2022/07/13 11:43:03;;;;;;;3.42;2.70;;;29.60;74.50;;;;;;4972555;28;20053;-69
2022/07/13 11:45:32;;;;;;;4.22;2.67;;;29.80;75.10;;;;;;4992101;28;20533;-69
2022/07/13 11:48:03;;;;;;;3.42;2.35;;;29.70;75.70;;;;;;4979710;28;20085;-70
2022/07/13 11:50:48;;;;;;;3.25;2.67;;;29.60;74.00;;;;;;4973804;28;20057;-70
2022/07/13 11:53:26;;;;;;;3.10;2.45;;;29.50;70.30;;;;;;4994092;28;20050;-71
2022/07/13 11:55:54;;;;;;;3.42;2.33;;;29.30;73.00;;;;;;5004716;28;20395;-70
2022/07/13 11:58:27;;;;;;;3.85;2.25;;;29.30;73.30;;;;;;4999357;28;20053;-72
2022/07/13 12:00:52;;;;;;;6.80;2.72;;;29.50;73.60;;;;;;5011746;28;20057;-70
2022/07/13 12:03:33;;;;;;;3.55;2.20;;;29.60;73.60;;;;;;4994876;28;20045;-71
2022/07/13 12:06:09;;;;;;;5.05;2.45;;;29.70;72.70;;;;;;4996363;28;20045;-68
2022/07/13 12:08:41;;;;;;;3.47;2.10;;;29.90;71.90;;;;;;4981597;28;20046;-69
2022/07/13 12:11:09;;;;;;;2.53;2.33;;;29.90;72.40;;;;;;5018705;28;20475;-69
2022/07/13 12:13:38;;;;;;;4.03;2.50;;;29.80;72.20;;;;;;4972024;28;20076;-69
2022/07/13 12:16:05;;;;;;;3.38;2.20;;;29.80;73.40;;;;;;4985902;28;20398;-71
2022/07/13 12:18:31;;;;;;;4.20;2.92;;;30.20;75.20;;;;;;4980524;28;20065;-69
2022/07/13 12:20:58;;;;;;;3.00;2.33;;;30.30;75.10;;;;;;4955342;28;20590;-68
2022/07/13 12:23:24;;;;;;;4.20;2.42;;;30.30;74.40;;;;;;4982912;28;20069;-68
2022/07/13 12:26:04;;;;;;;3.00;2.47;;;30.30;73.80;;;;;;4954095;28;20058;-68
2022/07/13 12:28:31;;;;;;;3.80;3.38;;;30.00;73.10;;;;;;4969266;28;20053;-69
2022/07/13 12:31:03;;;;;;;4.07;2.83;;;30.00;75.30;;;;;;4971558;28;20050;-70
2022/07/13 12:33:45;;;;;;;5.13;2.75;;;30.00;75.30;;;;;;4966691;28;20056;-68
2022/07/13 12:36:12;;;;;;;4.90;2.80;;;30.30;76.10;;;;;;4984463;28;20054;-68
2022/07/13 12:39:01;;;;;;;4.47;2.25;;;30.30;75.50;;;;;;4958899;28;20060;-69
2022/07/13 12:41:29;;;;;;;5.15;2.50;;;30.10;72.00;;;;;;4960838;28;20058;-69
2022/07/13 12:43:57;;;;;;;3.00;2.40;;;30.20;74.80;;;;;;4976779;28;20443;-68
2022/07/13 12:46:23;;;;;;;4.53;2.60;;;30.10;75.10;;;;;;4976272;28;20046;-68
2022/07/13 12:48:58;;;;;;;4.53;2.97;;;30.40;75.90;;;;;;4988100;28;20129;-69
2022/07/13 12:51:24;;;;;;;3.88;2.45;;;30.40;75.00;;;;;;4965774;28;20105;-69
2022/07/13 12:53:52;;;;;;;4.28;2.63;;;30.20;75.70;;;;;;4961499;28;20050;-68
2022/07/13 12:56:19;;;;;;;3.17;2.13;;;30.10;75.90;;;;;;4986623;28;20526;-69